Time;durP1;ratioP1;P1;durP2;ratioP2;P2;SDS_P1;SDS_P2;PMS_P1;PMS_P2;Temp;Humidity;BMP_temperature;BMP_pressure;BME280_temperature;BME280_humidity;BME280_pressure;Samples;Min_cycle;Max_cycle;Signal;HPM_P1;HPM_P2
2023/07/12 00:01:02;;;;;;;18.95;15.82;;;26.30;72.50;;;;;;4995419;28;20056;-66
2023/07/12 00:03:29;;;;;;;20.48;15.85;;;26.30;72.50;;;;;;4995934;28;20026;-66
2023/07/12 00:05:56;;;;;;;19.50;15.02;;;26.20;72.90;;;;;;4995692;28;20355;-67
2023/07/12 00:08:25;;;;;;;19.58;13.48;;;26.30;73.10;;;;;;4996359;28;20027;-66
2023/07/12 00:10:53;;;;;;;16.35;13.13;;;26.20;72.90;;;;;;4996333;28;20030;-67
2023/07/12 00:13:19;;;;;;;20.20;14.68;;;26.20;72.70;;;;;;4996050;28;20098;-67
2023/07/12 00:15:48;;;;;;;17.17;14.85;;;26.20;73.10;;;;;;4995677;28;20508;-66
2023/07/12 00:18:25;;;;;;;17.30;14.48;;;26.20;73.30;;;;;;4995979;28;20318;-66
2023/07/12 00:20:52;;;;;;;16.98;14.48;;;26.20;73.60;;;;;;4995614;28;20030;-66
2023/07/12 00:23:19;;;;;;;19.48;13.80;;;26.10;73.80;;;;;;4998624;28;20105;-67
2023/07/12 00:25:48;;;;;;;16.20;13.80;;;26.10;73.50;;;;;;4998994;28;20046;-66
2023/07/12 00:28:25;;;;;;;18.00;14.60;;;26.10;73.40;;;;;;4999755;28;20026;-66
2023/07/12 00:30:54;;;;;;;19.30;13.93;;;26.10;73.50;;;;;;4999957;28;20453;-66
2023/07/12 00:33:21;;;;;;;14.32;11.43;;;26.10;73.20;;;;;;4999918;28;20030;-67
2023/07/12 00:35:47;;;;;;;13.68;12.20;;;26.10;73.20;;;;;;4999300;28;20050;-66
2023/07/12 00:38:25;;;;;;;17.55;13.23;;;26.10;73.30;;;;;;4999880;28;20109;-66
2023/07/12 00:41:18;;;;;;;16.38;13.38;;;26.10;73.40;;;;;;4999425;28;20037;-67
2023/07/12 00:43:53;;;;;;;15.38;12.45;;;26.10;73.10;;;;;;4999961;28;20022;-68
2023/07/12 00:46:35;;;;;;;15.38;11.13;;;26.10;72.90;;;;;;4982263;28;20404;-67
2023/07/12 00:49:02;;;;;;;12.57;9.32;;;26.10;72.90;;;;;;4999481;28;20069;-66
2023/07/12 00:51:31;;;;;;;12.73;9.40;;;26.20;72.60;;;;;;4999859;28;20026;-66
2023/07/12 00:53:57;;;;;;;10.93;9.25;;;26.20;72.50;;;;;;4999230;28;20201;-66
2023/07/12 00:56:25;;;;;;;11.27;9.02;;;26.20;72.40;;;;;;4999757;28;20030;-67
2023/07/12 00:58:57;;;;;;;13.52;8.90;;;26.20;72.30;;;;;;4999199;28;20121;-67
2023/07/12 01:01:26;;;;;;;11.93;9.38;;;26.30;72.30;;;;;;4999075;28;20471;-67
2023/07/12 01:03:55;;;;;;;12.55;9.00;;;26.30;72.20;;;;;;4999038;28;20109;-66
2023/07/12 01:06:23;;;;;;;11.65;10.23;;;26.30;72.00;;;;;;4999471;28;20033;-67
2023/07/12 01:08:50;;;;;;;14.65;11.23;;;26.30;72.00;;;;;;4999037;28;20033;-67
2023/07/12 01:11:18;;;;;;;15.05;11.82;;;26.30;72.00;;;;;;4998925;28;20077;-66
2023/07/12 01:13:45;;;;;;;14.15;11.30;;;26.30;72.20;;;;;;4999386;28;20037;-67
2023/07/12 01:16:14;;;;;;;14.07;11.48;;;26.20;72.30;;;;;;4998774;28;20080;-67
2023/07/12 01:18:41;;;;;;;15.25;11.98;;;26.20;72.40;;;;;;4999312;28;20314;-66
2023/07/12 01:21:16;;;;;;;13.20;10.55;;;26.10;72.50;;;;;;5013994;28;20097;-66
2023/07/12 01:23:44;;;;;;;15.95;11.57;;;26.10;72.50;;;;;;4999009;28;20022;-67
2023/07/12 01:26:21;;;;;;;16.27;12.70;;;26.10;72.40;;;;;;4998584;28;20353;-66
2023/07/12 01:28:51;;;;;;;18.25;13.57;;;26.10;72.70;;;;;;4998303;28;20455;-66
2023/07/12 01:31:18;;;;;;;17.58;12.07;;;26.00;72.70;;;;;;4998830;28;20022;-67
2023/07/12 01:33:44;;;;;;;14.65;11.57;;;26.00;72.90;;;;;;4997904;28;20416;-65
2023/07/12 01:36:10;;;;;;;15.05;10.77;;;26.00;72.90;;;;;;4997259;28;20105;-66
2023/07/12 01:38:36;;;;;;;17.17;13.45;;;25.90;72.90;;;;;;4998482;28;20026;-66
2023/07/12 01:41:03;;;;;;;15.50;11.60;;;25.90;72.80;;;;;;4998370;28;20356;-66
2023/07/12 01:43:29;;;;;;;13.30;10.13;;;25.90;72.80;;;;;;4998864;28;20034;-67
2023/07/12 01:45:55;;;;;;;14.15;12.15;;;25.90;72.80;;;;;;4998310;28;20023;-66
2023/07/12 01:48:21;;;;;;;16.67;11.13;;;25.90;72.80;;;;;;4998309;28;20093;-66
2023/07/12 01:50:47;;;;;;;12.45;10.48;;;25.90;72.90;;;;;;4998748;28;20102;-67
2023/07/12 01:53:13;;;;;;;14.68;11.40;;;25.90;72.80;;;;;;4998192;28;20459;-67
2023/07/12 01:55:42;;;;;;;18.98;13.25;;;25.90;72.90;;;;;;4998237;28;20069;-67
2023/07/12 01:58:08;;;;;;;17.73;13.10;;;25.90;73.10;;;;;;4998352;28;20034;-67
2023/07/12 02:00:34;;;;;;;18.20;13.38;;;25.90;73.00;;;;;;4996961;28;20325;-66
2023/07/12 02:03:00;;;;;;;19.75;12.95;;;25.90;73.30;;;;;;4998511;28;20054;-66
2023/07/12 02:05:27;;;;;;;15.60;13.10;;;25.90;73.50;;;;;;4998101;28;20018;-66
2023/07/12 02:07:56;;;;;;;18.67;13.00;;;25.80;73.60;;;;;;4997856;28;20037;-67
2023/07/12 02:10:26;;;;;;;17.92;13.50;;;25.80;73.50;;;;;;4998136;28;20058;-67
2023/07/12 02:12:52;;;;;;;15.50;11.98;;;25.80;73.80;;;;;;4997499;28;20451;-67
2023/07/12 02:15:19;;;;;;;16.45;12.02;;;25.80;73.50;;;;;;4997741;28;20037;-67
2023/07/12 02:17:45;;;;;;;16.45;11.70;;;25.80;73.40;;;;;;4997066;28;20038;-66
2023/07/12 02:20:12;;;;;;;18.70;12.32;;;25.80;73.20;;;;;;4997301;28;20050;-66
2023/07/12 02:22:43;;;;;;;17.60;11.07;;;25.80;73.30;;;;;;4997671;28;20097;-67
2023/07/12 02:25:10;;;;;;;13.68;10.52;;;25.80;73.10;;;;;;4996680;28;20432;-66
2023/07/12 02:27:37;;;;;;;13.48;11.00;;;25.80;73.00;;;;;;4997795;28;20108;-67
2023/07/12 02:30:07;;;;;;;16.33;10.20;;;25.80;72.90;;;;;;4997781;28;20030;-66
2023/07/12 02:32:33;;;;;;;12.35;9.65;;;25.80;72.80;;;;;;4998270;28;20037;-66
2023/07/12 02:34:59;;;;;;;12.35;8.82;;;25.80;72.60;;;;;;4997650;28;20360;-66
2023/07/12 02:37:25;;;;;;;15.10;9.75;;;25.90;72.10;;;;;;4996290;28;20062;-67
2023/07/12 02:39:51;;;;;;;13.32;9.02;;;25.90;71.80;;;;;;4997752;28;20481;-67
2023/07/12 02:42:17;;;;;;;12.63;8.65;;;25.90;71.50;;;;;;4997372;28;20058;-66
2023/07/12 02:44:43;;;;;;;13.43;8.25;;;25.90;71.10;;;;;;4997803;28;20109;-66
2023/07/12 02:47:11;;;;;;;12.18;8.02;;;25.90;70.60;;;;;;4996407;28;20154;-66
2023/07/12 02:49:38;;;;;;;9.90;7.05;;;25.90;70.00;;;;;;4997182;28;20451;-67
2023/07/12 02:52:06;;;;;;;9.77;6.72;;;26.00;69.40;;;;;;4997632;28;20432;-65
2023/07/12 02:54:32;;;;;;;12.18;7.20;;;26.00;68.00;;;;;;4997589;28;20068;-66
2023/07/12 02:56:59;;;;;;;10.30;6.25;;;26.00;67.20;;;;;;4996909;28;20022;-67
2023/07/12 02:59:26;;;;;;;9.85;5.70;;;26.00;67.10;;;;;;4997150;28;20478;-66
2023/07/12 03:01:52;;;;;;;11.50;6.43;;;26.10;66.60;;;;;;4996842;28;20038;-66
2023/07/12 03:04:19;;;;;;;9.90;5.82;;;26.10;66.00;;;;;;4996847;28;20046;-66
2023/07/12 03:06:46;;;;;;;8.85;5.82;;;26.10;65.50;;;;;;4996669;28;20063;-67
2023/07/12 03:09:12;;;;;;;8.68;5.45;;;26.10;65.30;;;;;;4996996;28;20045;-66
2023/07/12 03:11:38;;;;;;;9.70;5.85;;;26.10;65.50;;;;;;4996727;28;20036;-66
2023/07/12 03:14:06;;;;;;;8.77;5.53;;;26.10;65.00;;;;;;4996963;28;20053;-66
2023/07/12 03:16:32;;;;;;;8.40;5.05;;;26.10;64.10;;;;;;4996811;28;20058;-67
2023/07/12 03:19:00;;;;;;;9.90;5.15;;;26.10;62.80;;;;;;4996891;28;20110;-67
2023/07/12 03:21:26;;;;;;;7.63;4.63;;;26.10;61.60;;;;;;4996402;28;20034;-66
2023/07/12 03:23:52;;;;;;;11.40;5.13;;;26.10;61.90;;;;;;4996753;28;20021;-66
2023/07/12 03:26:18;;;;;;;8.57;4.20;;;26.10;61.90;;;;;;4996449;28;20495;-66
2023/07/12 03:28:44;;;;;;;6.85;3.58;;;26.20;60.50;;;;;;4996470;28;20050;-66
2023/07/12 03:31:15;;;;;;;10.65;4.18;;;26.20;60.00;;;;;;4996407;28;20027;-66
2023/07/12 03:33:43;;;;;;;7.65;3.92;;;26.30;58.90;;;;;;4996308;28;20034;-66
2023/07/12 03:36:09;;;;;;;8.52;3.95;;;26.30;58.30;;;;;;4996215;28;20053;-66
2023/07/12 03:38:35;;;;;;;7.45;3.92;;;26.40;58.80;;;;;;4996290;28;20421;-66
2023/07/12 03:41:04;;;;;;;8.55;4.07;;;26.40;59.30;;;;;;4996143;28;20456;-66
2023/07/12 03:43:31;;;;;;;6.97;3.92;;;26.40;59.80;;;;;;4995286;28;20073;-66
2023/07/12 03:45:57;;;;;;;8.23;3.70;;;26.30;60.00;;;;;;4996100;28;20026;-65
2023/07/12 03:48:24;;;;;;;7.07;3.50;;;26.20;59.80;;;;;;4996371;28;20026;-66
2023/07/12 03:50:51;;;;;;;7.25;3.35;;;26.20;59.70;;;;;;4996098;28;20030;-66
2023/07/12 03:53:18;;;;;;;7.07;3.25;;;26.20;59.80;;;;;;4996038;28;20057;-67
2023/07/12 03:55:46;;;;;;;7.03;3.50;;;26.10;59.80;;;;;;4996125;28;20352;-66
2023/07/12 03:58:18;;;;;;;5.82;3.60;;;26.10;60.00;;;;;;4995752;28;20057;-66
2023/07/12 04:00:47;;;;;;;7.00;3.20;;;26.10;60.10;;;;;;4978818;28;20042;-66
2023/07/12 04:03:13;;;;;;;4.53;3.10;;;26.10;60.30;;;;;;4995271;28;20037;-67
2023/07/12 04:05:41;;;;;;;7.38;3.10;;;26.00;60.50;;;;;;4996122;28;20026;-66
2023/07/12 04:08:08;;;;;;;5.57;2.95;;;26.00;60.60;;;;;;4994859;28;20022;-67
2023/07/12 04:10:34;;;;;;;6.35;3.35;;;26.00;60.90;;;;;;4996123;28;20035;-66
2023/07/12 04:13:01;;;;;;;5.28;3.30;;;26.00;61.00;;;;;;4994824;28;20463;-66
2023/07/12 04:15:27;;;;;;;6.30;3.58;;;26.00;61.10;;;;;;4995925;28;20436;-67
2023/07/12 04:17:53;;;;;;;6.70;3.80;;;26.00;61.20;;;;;;4996282;28;20022;-67
2023/07/12 04:20:19;;;;;;;7.05;4.43;;;26.10;61.10;;;;;;4995907;28;20018;-66
2023/07/12 04:22:49;;;;;;;7.78;3.63;;;26.20;60.90;;;;;;4995942;28;20037;-67
2023/07/12 04:25:15;;;;;;;6.22;4.00;;;26.20;60.80;;;;;;4995627;28;20440;-66
2023/07/12 04:27:41;;;;;;;6.57;3.78;;;26.20;61.00;;;;;;4996148;28;20018;-67
2023/07/12 04:30:10;;;;;;;7.00;3.30;;;26.20;61.00;;;;;;4995900;28;20073;-67
2023/07/12 04:32:36;;;;;;;9.75;4.28;;;26.20;61.20;;;;;;4995889;28;20022;-67
2023/07/12 04:35:03;;;;;;;8.98;4.22;;;26.20;61.40;;;;;;4995584;28;20030;-67
2023/07/12 04:37:30;;;;;;;7.60;4.00;;;26.20;61.80;;;;;;4995382;28;20054;-66
2023/07/12 04:39:57;;;;;;;6.68;3.40;;;26.10;61.80;;;;;;4995752;28;20023;-66
2023/07/12 04:42:23;;;;;;;6.30;3.30;;;26.00;62.00;;;;;;4994958;28;20452;-67
2023/07/12 04:44:49;;;;;;;7.15;3.55;;;26.00;62.20;;;;;;4995505;28;20038;-67
2023/07/12 04:47:16;;;;;;;6.85;3.53;;;26.10;62.30;;;;;;4996275;28;20054;-67
2023/07/12 04:49:43;;;;;;;7.85;3.67;;;26.20;62.40;;;;;;4995775;28;20057;-67
2023/07/12 04:52:11;;;;;;;4.85;3.58;;;26.30;62.50;;;;;;4995436;28;20076;-66
2023/07/12 04:54:42;;;;;;;7.07;4.07;;;26.30;62.60;;;;;;4994490;28;20030;-66
2023/07/12 04:57:08;;;;;;;6.82;3.90;;;26.40;62.60;;;;;;4995336;28;20030;-67
2023/07/12 04:59:35;;;;;;;9.93;4.50;;;26.40;62.70;;;;;;4994480;28;20026;-67
2023/07/12 05:02:01;;;;;;;6.20;4.25;;;26.50;62.80;;;;;;4994539;28;20026;-67
2023/07/12 05:04:28;;;;;;;8.60;4.57;;;26.60;62.80;;;;;;4995665;28;20054;-66
2023/07/12 05:06:54;;;;;;;8.85;4.80;;;26.80;62.60;;;;;;4995566;28;20030;-67
2023/07/12 05:09:21;;;;;;;8.52;5.57;;;26.90;62.60;;;;;;4996736;28;20022;-65
2023/07/12 05:11:50;;;;;;;8.32;4.70;;;27.00;62.30;;;;;;4999026;28;20443;-67
2023/07/12 05:14:16;;;;;;;11.02;5.40;;;27.20;62.20;;;;;;4999429;28;20102;-66
2023/07/12 05:16:42;;;;;;;9.05;5.43;;;27.40;62.10;;;;;;4998052;28;20038;-67
2023/07/12 05:19:09;;;;;;;11.18;5.75;;;27.50;61.70;;;;;;4999392;28;20030;-66
2023/07/12 05:21:35;;;;;;;12.43;5.50;;;27.70;61.10;;;;;;4999268;28;20061;-67
2023/07/12 05:24:01;;;;;;;7.63;4.75;;;27.80;60.60;;;;;;4998782;28;20096;-69
2023/07/12 05:26:27;;;;;;;8.13;4.38;;;27.80;60.40;;;;;;4998711;28;20034;-67
2023/07/12 05:28:53;;;;;;;16.77;4.70;;;27.90;60.20;;;;;;4998699;28;20022;-69
2023/07/12 05:31:19;;;;;;;13.57;4.15;;;28.10;59.90;;;;;;4998656;28;20058;-69
2023/07/12 05:33:47;;;;;;;9.43;3.80;;;28.30;59.50;;;;;;4998595;28;20030;-69
2023/07/12 05:36:14;;;;;;;7.10;3.47;;;28.60;58.90;;;;;;4998372;28;20073;-69
2023/07/12 05:38:40;;;;;;;5.13;3.30;;;28.90;58.20;;;;;;5013817;28;20030;-70
2023/07/12 05:41:06;;;;;;;5.65;3.28;;;29.00;57.70;;;;;;4998380;28;20045;-69
2023/07/12 05:43:35;;;;;;;7.47;3.33;;;29.20;57.20;;;;;;4998621;28;20019;-68
2023/07/12 05:46:03;;;;;;;7.38;3.35;;;29.40;56.60;;;;;;4998282;28;20076;-69
2023/07/12 05:48:29;;;;;;;7.28;3.17;;;29.70;56.20;;;;;;4998253;28;20026;-68
2023/07/12 05:51:00;;;;;;;6.72;3.70;;;29.80;55.80;;;;;;4997237;28;20379;-69
2023/07/12 05:53:26;;;;;;;6.68;3.50;;;29.60;55.30;;;;;;4998116;28;20030;-68
2023/07/12 05:55:56;;;;;;;8.02;3.70;;;29.40;55.40;;;;;;4998029;28;20018;-68
2023/07/12 05:58:23;;;;;;;5.55;3.67;;;29.00;55.80;;;;;;4998114;28;20523;-68
2023/07/12 06:00:58;;;;;;;10.27;4.30;;;28.80;56.10;;;;;;4998246;28;20030;-65
2023/07/12 06:03:25;;;;;;;5.97;3.80;;;28.60;56.80;;;;;;4998287;28;20018;-67
2023/07/12 06:05:52;;;;;;;7.93;3.70;;;28.50;57.10;;;;;;4997946;28;20026;-67
2023/07/12 06:08:18;;;;;;;6.35;3.58;;;28.50;57.00;;;;;;4997934;28;20023;-68
2023/07/12 06:10:45;;;;;;;7.15;3.28;;;28.80;56.80;;;;;;4996942;28;20026;-68
2023/07/12 06:13:11;;;;;;;6.97;3.47;;;29.40;56.10;;;;;;4997853;28;20054;-68
2023/07/12 06:15:38;;;;;;;8.88;3.30;;;29.50;54.80;;;;;;4998268;28;20056;-66
2023/07/12 06:18:04;;;;;;;7.68;3.50;;;29.30;54.90;;;;;;4998505;28;20069;-67
2023/07/12 06:20:30;;;;;;;7.85;3.90;;;28.90;55.20;;;;;;4997722;28;20033;-67
2023/07/12 06:22:57;;;;;;;10.07;4.15;;;28.60;55.90;;;;;;4998190;28;20022;-66
2023/07/12 06:25:24;;;;;;;8.82;4.15;;;28.30;56.40;;;;;;4997586;28;20053;-67
2023/07/12 06:27:50;;;;;;;8.05;3.60;;;28.10;57.20;;;;;;4996714;28;20065;-66
2023/07/12 06:30:17;;;;;;;7.28;3.50;;;28.00;57.40;;;;;;4996568;28;20031;-67
2023/07/12 06:32:43;;;;;;;10.48;3.65;;;27.90;57.60;;;;;;4996634;28;20033;-66
2023/07/12 06:35:09;;;;;;;7.53;4.00;;;27.90;57.80;;;;;;4996991;28;20490;-67
2023/07/12 06:37:35;;;;;;;8.13;4.43;;;28.00;57.50;;;;;;4997181;28;20047;-67
2023/07/12 06:40:01;;;;;;;7.22;4.40;;;28.00;57.30;;;;;;4997582;28;20026;-67
2023/07/12 06:42:27;;;;;;;7.80;4.72;;;28.00;57.20;;;;;;4997313;28;20097;-67
2023/07/12 06:44:54;;;;;;;8.10;4.03;;;27.90;57.50;;;;;;4997381;28;20146;-68
2023/07/12 06:47:20;;;;;;;11.68;3.90;;;27.90;57.80;;;;;;4997228;28;20026;-68
2023/07/12 06:49:47;;;;;;;6.78;3.33;;;27.80;58.00;;;;;;4997418;28;20022;-66
2023/07/12 06:52:13;;;;;;;6.47;3.15;;;27.60;58.00;;;;;;4997049;28;20023;-67
2023/07/12 06:54:39;;;;;;;9.07;3.10;;;27.50;58.60;;;;;;4997107;28;20085;-68
2023/07/12 06:57:06;;;;;;;8.23;3.28;;;27.40;59.10;;;;;;4996997;28;20436;-67
2023/07/12 06:59:32;;;;;;;9.50;3.50;;;27.30;59.30;;;;;;4996919;28;20118;-69
2023/07/12 07:01:57;;;;;;;7.50;3.40;;;27.20;60.00;;;;;;4996966;28;20113;-67
2023/07/12 07:04:24;;;;;;;6.25;3.10;;;27.30;60.10;;;;;;4996091;28;20337;-67
2023/07/12 07:06:50;;;;;;;7.82;3.17;;;27.30;60.60;;;;;;4996888;28;20023;-67
2023/07/12 07:09:16;;;;;;;7.70;3.60;;;27.30;60.40;;;;;;4996481;28;20046;-66
2023/07/12 07:11:43;;;;;;;9.38;3.58;;;27.30;60.90;;;;;;4996604;28;20034;-66
2023/07/12 07:14:09;;;;;;;8.25;3.58;;;27.20;61.10;;;;;;4996698;28;20030;-68
2023/07/12 07:16:35;;;;;;;7.28;3.60;;;27.10;61.50;;;;;;4997109;28;20057;-67
2023/07/12 07:19:01;;;;;;;10.68;3.50;;;27.00;61.60;;;;;;4996794;28;20030;-66
2023/07/12 07:21:27;;;;;;;8.70;3.63;;;26.90;61.70;;;;;;4996975;28;20314;-66
2023/07/12 07:23:53;;;;;;;9.43;3.90;;;26.80;61.90;;;;;;4996532;28;20026;-66
2023/07/12 07:26:19;;;;;;;9.30;3.20;;;26.70;62.40;;;;;;4996514;28;20023;-67
2023/07/12 07:28:45;;;;;;;9.48;3.40;;;26.60;61.90;;;;;;4996455;28;20027;-68
2023/07/12 07:31:11;;;;;;;8.30;3.10;;;26.60;61.60;;;;;;4996395;28;20054;-66
2023/07/12 07:33:39;;;;;;;6.55;3.20;;;26.40;61.50;;;;;;4996058;28;20120;-66
2023/07/12 07:36:08;;;;;;;8.00;3.13;;;26.40;61.60;;;;;;4996099;28;20056;-65
2023/07/12 07:38:36;;;;;;;5.00;2.72;;;26.30;61.40;;;;;;4996205;28;20053;-67
2023/07/12 07:41:11;;;;;;;8.07;2.95;;;26.20;61.80;;;;;;4995284;28;20026;-66
2023/07/12 07:43:39;;;;;;;4.68;2.63;;;26.20;61.90;;;;;;4996496;28;20070;-66
2023/07/12 07:46:09;;;;;;;6.40;2.72;;;26.20;61.90;;;;;;4996068;28;20102;-67
2023/07/12 07:48:35;;;;;;;7.85;2.58;;;26.20;61.80;;;;;;4996674;28;20026;-66
2023/07/12 07:51:02;;;;;;;6.55;2.50;;;26.10;61.80;;;;;;4996034;28;20468;-67
2023/07/12 07:53:28;;;;;;;10.82;2.97;;;26.10;61.90;;;;;;4996053;28;20034;-67
2023/07/12 07:55:54;;;;;;;4.15;3.00;;;26.20;61.90;;;;;;4995968;28;20023;-68
2023/07/12 07:58:21;;;;;;;7.97;2.90;;;26.20;62.00;;;;;;4996509;28;20114;-67
2023/07/12 08:00:47;;;;;;;6.25;3.00;;;26.30;62.00;;;;;;4994902;28;20022;-68
2023/07/12 08:03:13;;;;;;;7.05;2.90;;;26.30;61.60;;;;;;4995949;28;20034;-68
2023/07/12 08:05:40;;;;;;;5.63;2.92;;;26.30;61.60;;;;;;4996111;28;20031;-67
2023/07/12 08:08:07;;;;;;;7.10;2.83;;;26.40;61.60;;;;;;4996113;28;20114;-67
2023/07/12 08:10:33;;;;;;;9.30;2.88;;;26.40;61.30;;;;;;4995855;28;20030;-69
2023/07/12 08:12:59;;;;;;;7.38;2.83;;;26.40;60.40;;;;;;4995787;28;20088;-65
2023/07/12 08:15:26;;;;;;;9.10;2.42;;;26.50;60.10;;;;;;4995729;28;20045;-66
2023/07/12 08:17:54;;;;;;;14.60;3.22;;;26.50;60.10;;;;;;4995798;28;20463;-68
2023/07/12 08:20:21;;;;;;;9.85;3.67;;;26.40;60.00;;;;;;4995954;28;20057;-67
2023/07/12 08:22:47;;;;;;;8.07;3.20;;;26.40;59.90;;;;;;4995718;28;20070;-67
2023/07/12 08:25:14;;;;;;;6.68;3.33;;;26.30;59.90;;;;;;4995686;28;20121;-67
2023/07/12 08:27:40;;;;;;;7.05;3.17;;;26.20;60.00;;;;;;4995654;28;20026;-67
2023/07/12 08:30:07;;;;;;;6.85;3.13;;;26.20;60.00;;;;;;4991437;28;20047;-66
2023/07/12 08:32:34;;;;;;;6.57;3.15;;;26.10;60.00;;;;;;4995561;28;20035;-66
2023/07/12 08:35:01;;;;;;;8.30;3.38;;;26.00;60.10;;;;;;4995799;28;20022;-67
2023/07/12 08:37:28;;;;;;;8.52;3.10;;;25.90;60.30;;;;;;4994256;28;20077;-68
2023/07/12 08:39:54;;;;;;;6.63;3.30;;;25.90;60.80;;;;;;4995759;28;20026;-68
2023/07/12 08:42:38;;;;;;;7.95;3.25;;;25.80;61.40;;;;;;4995441;28;20032;-68
2023/07/12 08:45:12;;;;;;;10.60;2.80;;;25.70;62.10;;;;;;4997858;28;20037;-67
2023/07/12 08:47:39;;;;;;;6.10;2.70;;;25.60;61.90;;;;;;4999799;28;20034;-67
2023/07/12 08:50:16;;;;;;;6.40;2.47;;;25.60;61.10;;;;;;4999433;28;20041;-68
2023/07/12 08:52:44;;;;;;;4.43;1.88;;;25.70;61.20;;;;;;4999932;28;20030;-67
2023/07/12 08:55:20;;;;;;;7.20;1.90;;;25.70;60.40;;;;;;4998308;28;20076;-67
2023/07/12 08:58:08;;;;;;;5.63;1.70;;;25.80;59.40;;;;;;4999797;28;20084;-68
2023/07/12 09:00:36;;;;;;;3.97;1.73;;;26.00;58.90;;;;;;4999400;28;20479;-67
2023/07/12 09:03:02;;;;;;;6.43;2.08;;;26.30;59.40;;;;;;4998251;28;20444;-67
2023/07/12 09:05:29;;;;;;;6.75;2.10;;;26.60;59.00;;;;;;4999047;28;20163;-68
2023/07/12 09:08:10;;;;;;;3.95;1.50;;;26.90;57.10;;;;;;4998221;28;20037;-68
2023/07/12 09:10:39;;;;;;;4.55;1.50;;;27.20;56.10;;;;;;4999031;28;20452;-67
2023/07/12 09:13:06;;;;;;;3.17;1.38;;;27.50;55.30;;;;;;4998950;28;20078;-68
2023/07/12 09:15:44;;;;;;;4.18;1.25;;;27.70;54.70;;;;;;4999066;28;20093;-67
2023/07/12 09:18:28;;;;;;;4.80;1.65;;;27.90;52.50;;;;;;4999219;28;20030;-67
2023/07/12 09:20:55;;;;;;;2.42;1.55;;;28.00;52.30;;;;;;4998781;28;20045;-67
2023/07/12 09:23:22;;;;;;;5.57;1.95;;;28.00;52.40;;;;;;4999300;28;20148;-67
2023/07/12 09:25:55;;;;;;;4.80;2.08;;;28.20;52.70;;;;;;4999066;28;20026;-67
2023/07/12 09:28:21;;;;;;;6.45;1.75;;;28.20;52.70;;;;;;4999284;28;20054;-67
2023/07/12 09:30:53;;;;;;;4.18;1.58;;;28.20;51.50;;;;;;4998959;28;20057;-67
2023/07/12 09:33:25;;;;;;;12.13;2.20;;;28.10;52.60;;;;;;4999221;28;20437;-66
2023/07/12 09:35:51;;;;;;;4.28;2.08;;;28.20;52.70;;;;;;4998538;28;20034;-67
2023/07/12 09:38:24;;;;;;;3.47;1.95;;;28.20;52.20;;;;;;4998845;28;20432;-69
2023/07/12 09:40:52;;;;;;;4.90;2.20;;;28.20;52.70;;;;;;4998987;28;20027;-67
2023/07/12 09:43:23;;;;;;;4.93;2.13;;;28.40;52.90;;;;;;4997845;28;20340;-67
2023/07/12 09:45:55;;;;;;;3.67;1.92;;;28.40;53.20;;;;;;4998323;28;20036;-67
2023/07/12 09:48:46;;;;;;;5.50;1.88;;;28.50;52.80;;;;;;4997454;28;20046;-67
2023/07/12 09:51:38;;;;;;;5.88;2.10;;;28.60;52.00;;;;;;4998497;28;20455;-66
2023/07/12 09:54:27;;;;;;;4.47;1.65;;;28.70;52.30;;;;;;4997309;28;20109;-68
2023/07/12 09:57:10;;;;;;;3.28;1.50;;;28.80;51.90;;;;;;4998235;28;20037;-68
2023/07/12 09:59:54;;;;;;;5.60;1.40;;;28.90;52.40;;;;;;4998399;28;20080;-67
2023/07/12 10:02:21;;;;;;;4.95;1.30;;;28.90;52.30;;;;;;4998083;28;20444;-66
2023/07/12 10:04:49;;;;;;;3.67;1.50;;;29.10;52.50;;;;;;4998576;28;20036;-67
2023/07/12 10:07:33;;;;;;;1.30;1.10;;;29.20;52.00;;;;;;4998411;28;20435;-67
2023/07/12 10:09:59;;;;;;;3.03;1.02;;;29.30;51.50;;;;;;4997403;28;20037;-67
2023/07/12 10:12:43;;;;;;;2.47;0.60;;;29.40;50.70;;;;;;4997914;28;20471;-67
2023/07/12 10:15:11;;;;;;;;;;;29.30;50.70;;;;;;4997630;28;20053;-67
2023/07/12 10:17:40;;;;;;;4.50;1.10;;;29.10;49.50;;;;;;4998057;28;19928;-67
2023/07/12 10:20:15;;;;;;;2.47;0.98;;;28.90;49.40;;;;;;4997668;28;20113;-67
2023/07/12 10:22:44;;;;;;;3.38;0.90;;;28.80;50.60;;;;;;4998016;28;20033;-67
2023/07/12 10:25:22;;;;;;;2.40;0.90;;;28.90;51.40;;;;;;4998130;28;20019;-67
2023/07/12 10:28:25;;;;;;;2.45;0.82;;;29.00;49.40;;;;;;4998200;28;20022;-67
2023/07/12 10:30:55;;;;;;;1.52;0.70;;;29.00;47.90;;;;;;4996632;28;20062;-68
2023/07/12 10:33:29;;;;;;;2.97;0.82;;;29.20;49.30;;;;;;4997799;28;20057;-67
2023/07/12 10:36:04;;;;;;;1.90;0.90;;;29.30;47.20;;;;;;4997529;28;20022;-65
2023/07/12 10:38:31;;;;;;;2.63;0.90;;;29.40;47.20;;;;;;4996433;28;20134;-68
2023/07/12 10:41:41;;;;;;;1.65;0.75;;;29.50;47.50;;;;;;4996312;28;20027;-67
2023/07/12 10:44:39;;;;;;;1.85;0.88;;;29.60;47.80;;;;;;4957031;29;20132;-68
2023/07/12 10:47:09;;;;;;;2.83;1.02;;;29.70;46.70;;;;;;4899738;29;20096;-68
2023/07/12 10:49:57;;;;;;;1.13;0.90;;;29.80;45.90;;;;;;4884518;29;20037;-68
2023/07/12 10:52:28;;;;;;;4.72;1.23;;;29.70;46.60;;;;;;4884228;29;20043;-68
2023/07/12 10:55:03;;;;;;;2.63;0.80;;;29.80;47.10;;;;;;4899665;29;20388;-66
2023/07/12 10:57:50;;;;;;;1.90;1.08;;;29.80;47.50;;;;;;4899464;29;20358;-65
2023/07/12 11:00:16;;;;;;;3.92;1.27;;;29.90;48.00;;;;;;4884257;29;20082;-63
2023/07/12 11:03:00;;;;;;;2.55;1.00;;;30.00;48.00;;;;;;4956504;29;20055;-66
2023/07/12 11:05:38;;;;;;;1.00;0.90;;;30.00;48.70;;;;;;4956557;29;20400;-66
2023/07/12 11:08:05;;;;;;;2.00;1.20;;;30.10;48.60;;;;;;4939533;28;20038;-67
2023/07/12 11:10:35;;;;;;;1.40;1.20;;;30.20;48.70;;;;;;4956932;29;20127;-67
2023/07/12 11:13:11;;;;;;;3.03;1.00;;;30.20;48.50;;;;;;4956869;29;20039;-67
2023/07/12 11:15:51;;;;;;;1.75;1.20;;;30.30;48.00;;;;;;4956428;29;20067;-66
2023/07/12 11:18:48;;;;;;;1.85;0.90;;;30.30;48.70;;;;;;4956737;29;20042;-67
2023/07/12 11:21:45;;;;;;;0.95;0.93;;;30.30;47.00;;;;;;4955618;29;20039;-66
2023/07/12 11:24:30;;;;;;;1.55;1.02;;;30.30;46.60;;;;;;4982382;28;20440;-66
2023/07/12 11:27:01;;;;;;;1.73;1.02;;;30.50;47.40;;;;;;4996709;28;20023;-68
2023/07/12 11:29:35;;;;;;;2.17;0.80;;;30.60;46.80;;;;;;4996467;28;20023;-67
2023/07/12 11:32:30;;;;;;;1.10;0.70;;;30.70;45.70;;;;;;4996406;28;20115;-67
2023/07/12 11:35:09;;;;;;;3.90;0.82;;;30.80;44.10;;;;;;4996598;28;20026;-67
2023/07/12 11:37:41;;;;;;;0.60;0.50;;;30.90;45.10;;;;;;4996260;28;20475;-67
2023/07/12 11:40:31;;;;;;;1.73;0.90;;;30.90;43.90;;;;;;4995899;28;20026;-67
2023/07/12 11:43:26;;;;;;;1.73;0.80;;;30.90;43.90;;;;;;4995946;28;20027;-67
2023/07/12 11:45:58;;;;;;;1.10;0.90;;;31.00;44.20;;;;;;4996065;28;20026;-67
2023/07/12 11:48:28;;;;;;;1.55;0.77;;;31.00;42.90;;;;;;4995181;28;20022;-67
2023/07/12 11:50:58;;;;;;;1.33;0.80;;;31.00;42.70;;;;;;4996291;28;20069;-68
2023/07/12 11:53:24;;;;;;;1.55;0.70;;;31.00;43.30;;;;;;4995192;28;20026;-67
2023/07/12 11:55:50;;;;;;;3.95;1.00;;;31.10;44.20;;;;;;4995964;28;20395;-67
2023/07/12 11:58:21;;;;;;;2.65;0.70;;;31.10;44.40;;;;;;4996282;28;20117;-68
2023/07/12 12:00:49;;;;;;;1.75;0.88;;;31.20;44.70;;;;;;4996419;28;20080;-67
2023/07/12 12:03:17;;;;;;;2.47;0.98;;;31.20;45.20;;;;;;4996202;28;20407;-68
2023/07/12 12:05:44;;;;;;;2.33;1.02;;;31.20;44.70;;;;;;4996032;28;20052;-67
2023/07/12 12:08:25;;;;;;;4.20;1.33;;;31.20;45.50;;;;;;4994988;28;20040;-67
2023/07/12 12:10:54;;;;;;;2.28;1.17;;;31.30;45.30;;;;;;4995997;28;20026;-67
2023/07/12 12:13:20;;;;;;;1.35;1.00;;;31.30;45.40;;;;;;4994882;28;20038;-67
2023/07/12 12:16:16;;;;;;;2.15;0.70;;;31.20;45.30;;;;;;4995805;28;20045;-68
2023/07/12 12:18:54;;;;;;;1.75;1.00;;;31.30;45.50;;;;;;4995569;28;20173;-68
2023/07/12 12:21:20;;;;;;;1.95;0.88;;;31.40;46.00;;;;;;4995952;28;20065;-68
2023/07/12 12:23:56;;;;;;;2.08;0.80;;;31.40;45.20;;;;;;4995724;28;20030;-68
2023/07/12 12:26:34;;;;;;;1.70;1.23;;;31.40;45.30;;;;;;4995246;28;20046;-67
2023/07/12 12:29:06;;;;;;;0.95;0.75;;;31.50;45.10;;;;;;4996171;28;20022;-67
2023/07/12 12:31:33;;;;;;;2.30;0.80;;;31.50;44.40;;;;;;4995924;28;20033;-67
2023/07/12 12:34:15;;;;;;;1.92;0.73;;;31.50;44.50;;;;;;4995830;28;20030;-67
2023/07/12 12:36:58;;;;;;;1.98;0.80;;;31.50;43.80;;;;;;4995562;28;20054;-67
2023/07/12 12:39:23;;;;;;;0.77;0.70;;;31.50;44.30;;;;;;4995875;28;20076;-66
2023/07/12 12:41:54;;;;;;;0.90;0.73;;;31.60;44.20;;;;;;4995395;28;20368;-67
2023/07/12 12:44:26;;;;;;;3.33;1.02;;;31.60;44.00;;;;;;4994595;28;20029;-68
2023/07/12 12:46:57;;;;;;;2.40;1.00;;;31.70;43.90;;;;;;4994608;28;20146;-67
2023/07/12 12:49:28;;;;;;;4.05;0.80;;;31.70;43.90;;;;;;4995999;28;20030;-67
2023/07/12 12:51:59;;;;;;;2.33;0.82;;;31.70;44.10;;;;;;4995360;28;20085;-68
2023/07/12 12:54:25;;;;;;;1.85;0.80;;;31.70;43.80;;;;;;4995952;28;20018;-67
2023/07/12 12:56:52;;;;;;;2.58;0.90;;;31.70;43.80;;;;;;4995603;28;20023;-67